x

Isle Of Shoals, Nh (iosn3) Weather Station

4:00 - Fri 20th Jan 2017 All times are EST. -5 hours from GMT.

  • Wind
    10mph, 11mph gusts
  • Air Temp 38°f
  • Sea Pressure 1016mb
  • Isle Of Shoals, Nh
  • Isle Of Shoals, Nh

More Historic Weather Station data

Upgrade to MSW Pro to gain access to the past 30 days of data for over 8000 Wavebouys and Weather Stations around the globe.

Join Pro

Comparision Forecast

View Surf forecast
   
ven. 01/20 4:00 10 11 mph 1016mb 38f
3:00 10 11 mph 1015.7mb 39f
2:00 13 15 mph 1015mb 39f
1:00 9 10 mph 1015mb 38f
12:00 14 15 mph 1015.6mb 38f
jeu. 01/19 11:00 14 15 mph 1016.5mb 38f
10:00 15 16 mph 1016.4mb 38f
9:00 11 14 mph 1015.9mb 39f
8:00 14 15 mph 1015.3mb 39f
7:00 13 14 mph 1015.2mb 39f
6:00 11 13 mph 1014.3mb 40f
5:00 13 14 mph 1013.4mb 41f
4:00 14 15 mph 1013.4mb 42f
3:00 9 11 mph 1013.2mb 42f
2:00 6 7 mph 1013.1mb 40f
1:00 7 9 mph 1013.6mb 38f
12:00 3 6 mph 1014.1mb 36f
11:00 6 7 mph 1015mb 34f
10:00 6 7 mph 1015.6mb 33f
9:00 6 8 mph 1015.6mb 32f
8:00 5 7 mph 1015.8mb 32f
7:00 5 6 mph 1015.4mb 31f
6:00 3 5 mph 1015.7mb 30f
5:00 6 8 mph 1015.4mb 30f
4:00 7 8 mph 1015.6mb 30f
3:00 8 10 mph 1016mb 30f
2:00 14 15 mph 1016mb 31f
1:00 15 17 mph 1016.1mb 30f
12:00 18 20 mph 1016.2mb 30f
mer. 01/18 11:00 17 18 mph 1016.6mb 30f
10:00 18 21 mph 1015.8mb 31f
9:00 21 23 mph 1017mb 31f
8:00 23 25 mph 1017.4mb 32f
7:00 22 24 mph 1017.5mb 33f
6:00 20 22 mph 1016.7mb 39f
5:00 24 25 mph 1015.9mb 39f
4:00 24 26 mph 1015.7mb 39f
3:00 25 28 mph 1015.4mb 38f
2:00 23 25 mph 1015mb 38f
1:00 24 25 mph 1014.7mb 38f
12:00 26 29 mph 1014.7mb 38f
11:00 26 30 mph 1015.1mb 39f
10:00 25 28 mph 1016.1mb 38f
9:00 25 29 mph 1016.4mb 38f
8:00 26 29 mph 1015.9mb 38f
7:00 25 28 mph 1015.9mb 37f
6:00 24 26 mph 1016.3mb 37f
5:00 25 28 mph 1016.1mb 37f
4:00 29 32 mph 1016mb 37f
3:00 28 30 mph 1017mb 36f
2:00 25 28 mph 1017.9mb 36f
1:00 29 30 mph 1018.5mb 35f
12:00 24 26 mph 1019.3mb 36f
mar. 01/17 11:00 28 30 mph 1019.3mb 36f
10:00 25 26 mph 1020.1mb 37f
9:00 25 26 mph 1020.7mb 37f
8:00 26 28 mph 1020.9mb 39f
7:00 20 21 mph 1022mb 40f
6:00 21 23 mph 1022mb 39f
5:00 18 22 mph 1022.2mb 39f
4:00 16 18 mph 1022.7mb 39f
3:00 14 15 mph 1022.7mb 39f
2:00 13 14 mph 1022.5mb 39f
1:00 15 17 mph 1022.7mb 39f
12:00 16 18 mph 1023.3mb 39f
11:00 18 21 mph 1023.7mb 39f
10:00 14 15 mph 1024.2mb 38f
9:00 10 13 mph 1024.2mb 37f
8:00 13 14 mph 1023.5mb 35f
7:00 13
mph
1022.8mb 34f
6:00 16 20 mph 1021.9mb 35f
5:00 16 18 mph 1021.3mb 35f
4:00 21 24 mph 1021.4mb 37f
3:00 24 26 mph 1020.9mb 38f
2:00 23 25 mph 1020.8mb 37f
1:00 21 23 mph 1020.8mb 37f
12:00 21 23 mph 1021.1mb 37f
lun. 01/16 11:00 18 21 mph 1021.7mb 37f
10:00 24 25 mph 1021.9mb 38f
9:00 23 25 mph 1022.2mb 38f
8:00 24 28 mph 1022.4mb 39f
7:00 21 22 mph 1022.9mb 39f
6:00 21 23 mph 1023.4mb 39f
5:00 18 20 mph 1023.6mb 39f
4:00 21 24 mph 1023.6mb 39f
3:00 21 23 mph 1023.9mb 38f
2:00 24 26 mph 1024mb 37f
1:00 21 24 mph 1024.9mb 35f
12:00 21 24 mph 1026mb 34f
11:00 23 25 mph 1027.7mb 31f